createdAt,value
2018-05-26T00:00:27.997Z,18.73
2018-05-26T00:01:28.050Z,18.77
2018-05-26T00:02:28.074Z,18.74
2018-05-26T00:03:28.225Z,18.72
2018-05-26T00:04:28.188Z,18.74
2018-05-26T00:05:28.237Z,18.74
2018-05-26T00:06:28.269Z,18.74
2018-05-26T00:07:28.318Z,18.70
2018-05-26T00:08:30.016Z,18.80
2018-05-26T00:09:28.388Z,18.68
2018-05-26T00:10:28.435Z,18.82
2018-05-26T00:11:28.493Z,18.79
2018-05-26T00:12:28.521Z,18.74
2018-05-26T00:13:28.582Z,18.80
2018-05-26T00:14:28.719Z,18.83
2018-05-26T00:15:28.674Z,18.82
2018-05-26T00:16:28.700Z,18.86
2018-05-26T00:17:28.787Z,18.83
2018-05-26T00:18:28.788Z,18.77
2018-05-26T00:19:28.856Z,18.90
2018-05-26T00:20:28.890Z,18.87
2018-05-26T00:21:28.935Z,18.82
2018-05-26T00:22:28.982Z,18.91
2018-05-26T00:23:29.017Z,18.90
2018-05-26T00:24:29.072Z,18.86
2018-05-26T00:25:30.417Z,18.82
2018-05-26T00:26:29.138Z,18.87
2018-05-26T00:27:29.183Z,18.86
2018-05-26T00:28:29.236Z,18.80
2018-05-26T00:29:29.283Z,18.73
2018-05-26T00:30:29.519Z,18.86
2018-05-26T00:31:29.394Z,18.72
2018-05-26T00:32:29.507Z,18.73
2018-05-26T00:33:29.465Z,18.76
2018-05-26T00:34:29.490Z,18.68
2018-05-26T00:35:29.553Z,18.77
2018-05-26T00:36:29.580Z,18.67
2018-05-26T00:37:29.626Z,18.79
2018-05-26T00:38:29.877Z,18.64
2018-05-26T00:39:29.719Z,18.68
2018-05-26T00:40:29.763Z,18.65
2018-05-26T00:41:29.814Z,18.67
2018-05-26T00:42:29.845Z,18.68
2018-05-26T00:43:30.002Z,18.67
2018-05-26T00:44:29.950Z,18.74
2018-05-26T00:45:30.008Z,18.68
2018-05-26T00:46:30.022Z,18.68
2018-05-26T00:47:30.069Z,18.68
2018-05-26T00:48:31.759Z,18.64
2018-05-26T00:49:30.167Z,18.74
2018-05-26T00:50:30.192Z,18.72
2018-05-26T00:51:30.262Z,18.65
2018-05-26T00:52:30.293Z,18.74
2018-05-26T00:53:30.343Z,18.64
2018-05-26T00:54:30.480Z,18.68
2018-05-26T00:55:30.432Z,18.72
2018-05-26T00:56:30.470Z,18.72
2018-05-26T00:57:30.514Z,18.64
2018-05-26T00:58:30.560Z,18.70
2018-05-26T00:59:30.604Z,18.65
2018-05-26T01:00:30.807Z,18.59
2018-05-26T01:01:30.685Z,18.58
2018-05-26T01:02:30.947Z,18.62
2018-05-26T01:03:30.775Z,18.64
2018-05-26T01:04:30.840Z,18.57
2018-05-26T01:05:31.125Z,18.64
2018-05-26T01:06:30.920Z,18.58
2018-05-26T01:07:30.946Z,18.61
2018-05-26T01:08:31.004Z,18.54
2018-05-26T01:09:31.033Z,18.59
2018-05-26T01:10:31.106Z,18.55
2018-05-26T01:11:31.128Z,18.61
2018-05-26T01:12:31.173Z,18.52
2018-05-26T01:13:31.211Z,18.64
2018-05-26T01:14:31.286Z,18.57
2018-05-26T01:15:31.498Z,18.55
2018-05-26T01:16:31.356Z,18.55
2018-05-26T01:17:31.405Z,18.55
2018-05-26T01:18:31.447Z,18.57
2018-05-26T01:19:31.473Z,18.55
2018-05-26T01:20:31.523Z,18.55
2018-05-26T01:21:31.582Z,18.59
2018-05-26T01:22:31.619Z,18.52
2018-05-26T01:23:31.674Z,18.57
2018-05-26T01:24:31.711Z,18.55
2018-05-26T01:25:31.772Z,18.55
2018-05-26T01:26:31.900Z,18.47
2018-05-26T01:27:31.843Z,18.47
2018-05-26T01:28:31.890Z,18.44
2018-05-26T01:29:31.913Z,18.42
2018-05-26T01:30:31.961Z,18.36
2018-05-26T01:31:32.021Z,18.37
2018-05-26T01:32:32.072Z,18.34
2018-05-26T01:33:32.189Z,18.27
2018-05-26T01:34:32.152Z,18.36
2018-05-26T01:35:32.194Z,18.33
2018-05-26T01:36:32.229Z,18.28
2018-05-26T01:37:32.291Z,18.29
2018-05-26T01:38:32.311Z,18.33
2018-05-26T01:39:32.571Z,18.24
2018-05-26T01:40:32.407Z,18.28
2018-05-26T01:41:32.438Z,18.28
2018-05-26T01:42:32.487Z,18.27
2018-05-26T01:43:32.547Z,18.22
2018-05-26T01:44:32.574Z,18.18
2018-05-26T01:45:34.120Z,18.13
2018-05-26T01:46:32.668Z,18.15
2018-05-26T01:47:32.721Z,18.18
2018-05-26T01:48:32.776Z,18.15
2018-05-26T01:49:32.793Z,18.13
2018-05-26T01:50:32.850Z,18.21
2018-05-26T01:51:32.881Z,18.09
2018-05-26T01:52:32.929Z,18.12
2018-05-26T01:53:32.964Z,18.09
2018-05-26T01:54:33.024Z,18.09
2018-05-26T01:55:33.080Z,18.15
2018-05-26T01:56:33.300Z,18.06
2018-05-26T01:57:34.707Z,17.99
2018-05-26T01:58:33.194Z,18.04
2018-05-26T01:59:33.255Z,18.02
2018-05-26T02:00:33.271Z,18.03
2018-05-26T02:01:33.314Z,17.99
2018-05-26T02:02:33.383Z,17.95
2018-05-26T02:03:33.428Z,18.02
2018-05-26T02:04:33.646Z,18.06
2018-05-26T02:05:33.488Z,18.02
2018-05-26T02:06:33.535Z,18.00
2018-05-26T02:07:33.611Z,17.95
2018-05-26T02:08:33.641Z,17.94
2018-05-26T02:09:33.786Z,17.95
2018-05-26T02:10:33.739Z,17.95
2018-05-26T02:11:33.750Z,17.92
2018-05-26T02:12:33.790Z,17.91
2018-05-26T02:13:33.855Z,17.79
2018-05-26T02:14:33.896Z,17.82
2018-05-26T02:15:33.928Z,17.84
2018-05-26T02:16:35.543Z,17.87
2018-05-26T02:17:34.011Z,17.82
2018-05-26T02:18:34.072Z,17.78
2018-05-26T02:19:34.101Z,17.85
2018-05-26T02:20:34.141Z,17.84
2018-05-26T02:21:34.205Z,17.82
2018-05-26T02:22:34.436Z,17.81
2018-05-26T02:23:34.272Z,17.85
2018-05-26T02:24:34.319Z,17.78
2018-05-26T02:25:34.369Z,17.91
2018-05-26T02:26:34.404Z,17.91
2018-05-26T02:27:34.464Z,17.87
2018-05-26T02:28:34.488Z,17.94
2018-05-26T02:29:34.540Z,17.87
2018-05-26T02:30:34.597Z,17.95
2018-05-26T02:31:34.633Z,17.84
2018-05-26T02:32:34.766Z,17.81
2018-05-26T02:33:34.733Z,17.84
2018-05-26T02:34:34.757Z,17.76
2018-05-26T02:35:34.806Z,17.84
2018-05-26T02:36:34.844Z,17.78
2018-05-26T02:37:34.896Z,17.70
2018-05-26T02:38:35.042Z,17.71
2018-05-26T02:39:34.978Z,17.67
2018-05-26T02:40:35.010Z,17.64
2018-05-26T02:41:35.080Z,17.63
2018-05-26T02:42:35.114Z,17.63
2018-05-26T02:43:35.145Z,17.57
2018-05-26T02:44:35.285Z,17.54
2018-05-26T02:45:35.225Z,17.51
2018-05-26T02:46:35.267Z,17.62
2018-05-26T02:47:35.315Z,17.54
2018-05-26T02:48:35.375Z,17.48
2018-05-26T02:49:35.512Z,17.54
2018-05-26T02:50:35.467Z,17.54
2018-05-26T02:51:35.506Z,17.55
2018-05-26T02:52:35.528Z,17.46
2018-05-26T02:53:35.591Z,17.54
2018-05-26T02:54:35.633Z,17.64
2018-05-26T02:55:35.881Z,17.50
2018-05-26T02:56:35.702Z,17.59
2018-05-26T02:57:35.742Z,17.55
2018-05-26T02:58:35.806Z,17.59
2018-05-26T02:59:35.852Z,17.48
2018-05-26T03:00:35.880Z,17.51
2018-05-26T03:01:36.049Z,17.54
2018-05-26T03:02:35.981Z,17.48
2018-05-26T03:03:36.018Z,17.54
2018-05-26T03:04:36.051Z,17.51
2018-05-26T03:05:36.091Z,17.41
2018-05-26T03:06:36.157Z,17.48
2018-05-26T03:07:36.182Z,17.44
2018-05-26T03:08:36.218Z,17.43
2018-05-26T03:09:36.285Z,17.50
2018-05-26T03:10:36.324Z,17.35
2018-05-26T03:11:36.459Z,17.26
2018-05-26T03:12:36.414Z,17.40
2018-05-26T03:13:36.460Z,17.26
2018-05-26T03:14:36.479Z,17.29
2018-05-26T03:15:36.524Z,17.25
2018-05-26T03:16:36.568Z,17.25
2018-05-26T03:17:36.869Z,17.18
2018-05-26T03:18:36.671Z,17.17
2018-05-26T03:19:36.702Z,17.11
2018-05-26T03:20:36.756Z,17.13
2018-05-26T03:21:36.797Z,17.11
2018-05-26T03:22:36.845Z,17.13
2018-05-26T03:23:36.981Z,17.07
2018-05-26T03:24:37.071Z,17.11
2018-05-26T03:25:36.956Z,17.08
2018-05-26T03:26:37.015Z,17.03
2018-05-26T03:27:37.054Z,17.08
2018-05-26T03:28:37.090Z,17.03
2018-05-26T03:29:37.141Z,16.99
2018-05-26T03:30:37.378Z,17.03
2018-05-26T03:31:37.217Z,17.03
2018-05-26T03:32:37.259Z,16.99
2018-05-26T03:33:37.296Z,17.04
2018-05-26T03:34:37.343Z,17.06
2018-05-26T03:35:37.503Z,17.04
2018-05-26T03:36:37.442Z,17.03
2018-05-26T03:37:37.484Z,17.07
2018-05-26T03:38:37.525Z,17.14
2018-05-26T03:39:37.556Z,17.13
2018-05-26T03:40:37.623Z,17.13
2018-05-26T03:41:37.652Z,17.20
2018-05-26T03:42:37.700Z,17.29
2018-05-26T03:43:37.735Z,17.23
2018-05-26T03:44:37.785Z,17.30
2018-05-26T03:45:37.839Z,17.26
2018-05-26T03:46:37.955Z,17.44
2018-05-26T03:47:37.912Z,17.38
2018-05-26T03:48:37.963Z,17.43
2018-05-26T03:49:37.987Z,17.43
2018-05-26T03:50:38.035Z,17.48
2018-05-26T03:51:38.079Z,17.44
2018-05-26T03:52:38.133Z,17.48
2018-05-26T03:53:38.185Z,17.51
2018-05-26T03:54:38.210Z,17.48
2018-05-26T03:55:38.255Z,17.46
2018-05-26T03:56:38.297Z,17.53
2018-05-26T03:57:38.446Z,17.57
2018-05-26T03:58:38.379Z,17.55
2018-05-26T03:59:38.436Z,17.63
2018-05-26T04:00:38.477Z,17.62
2018-05-26T04:01:38.509Z,17.64
2018-05-26T04:02:38.558Z,17.64
2018-05-26T04:03:38.599Z,17.64
2018-05-26T04:04:38.640Z,17.69
2018-05-26T04:05:38.685Z,17.69
2018-05-26T04:06:38.727Z,17.63
2018-05-26T04:07:38.976Z,17.69
2018-05-26T04:08:38.808Z,17.70
2018-05-26T04:09:38.871Z,17.71
2018-05-26T04:10:38.924Z,17.67
2018-05-26T04:11:38.956Z,17.66
2018-05-26T04:12:39.107Z,17.70
2018-05-26T04:13:39.040Z,17.67
2018-05-26T04:14:39.076Z,17.66
2018-05-26T04:15:39.132Z,17.67
2018-05-26T04:16:39.177Z,17.70
2018-05-26T04:17:39.199Z,17.70
2018-05-26T04:18:39.260Z,17.57
2018-05-26T04:19:39.294Z,17.57
2018-05-26T04:20:39.337Z,17.62
2018-05-26T04:21:39.385Z,17.59
2018-05-26T04:22:39.645Z,17.64
2018-05-26T04:23:39.485Z,17.54
2018-05-26T04:24:39.510Z,17.55
2018-05-26T04:25:39.549Z,17.51
2018-05-26T04:26:39.606Z,17.50
2018-05-26T04:27:39.736Z,17.43
2018-05-26T04:28:39.683Z,17.50
2018-05-26T04:29:39.737Z,17.22
2018-05-26T04:30:39.769Z,17.29
2018-05-26T04:31:39.816Z,17.23
2018-05-26T04:32:39.870Z,17.26
2018-05-26T04:33:39.912Z,17.23
2018-05-26T04:34:39.941Z,17.22
2018-05-26T04:35:39.992Z,17.14
2018-05-26T04:36:40.030Z,17.10
2018-05-26T04:37:40.083Z,17.11
2018-05-26T04:38:40.229Z,17.08
2018-05-26T04:39:40.174Z,16.99
2018-05-26T04:40:40.211Z,17.04
2018-05-26T04:41:40.246Z,16.93
2018-05-26T04:42:40.288Z,16.93
2018-05-26T04:43:40.356Z,16.93
2018-05-26T04:44:40.625Z,16.92
2018-05-26T04:45:40.410Z,16.90
2018-05-26T04:46:40.453Z,17.03
2018-05-26T04:47:40.525Z,16.96
2018-05-26T04:48:40.566Z,16.88
2018-05-26T04:49:40.696Z,16.90
2018-05-26T04:50:40.645Z,16.80
2018-05-26T04:51:40.674Z,16.96
2018-05-26T04:52:40.726Z,16.85
2018-05-26T04:53:40.761Z,16.83
2018-05-26T04:54:40.821Z,16.86
2018-05-26T04:55:40.864Z,16.81
2018-05-26T04:56:40.883Z,16.78
2018-05-26T04:57:40.950Z,16.80
2018-05-26T04:58:40.988Z,16.86
2018-05-26T04:59:41.237Z,16.80
2018-05-26T05:00:41.159Z,16.95
2018-05-26T05:01:41.113Z,16.77
2018-05-26T05:02:41.164Z,16.83
2018-05-26T05:03:41.206Z,16.77
2018-05-26T05:04:41.247Z,16.73
2018-05-26T05:05:41.272Z,16.78
2018-05-26T05:06:41.532Z,16.80
2018-05-26T05:07:41.383Z,16.73
2018-05-26T05:08:41.414Z,16.74
2018-05-26T05:09:41.483Z,16.68
2018-05-26T05:10:41.484Z,16.70
2018-05-26T05:11:41.626Z,16.65
2018-05-26T05:12:41.574Z,16.68
2018-05-26T05:13:41.641Z,16.71
2018-05-26T05:14:41.673Z,16.68
2018-05-26T05:15:41.713Z,16.67
2018-05-26T05:16:41.768Z,16.73
2018-05-26T05:17:41.988Z,16.68
2018-05-26T05:18:41.834Z,16.73
2018-05-26T05:19:41.870Z,16.77
2018-05-26T05:20:41.923Z,16.71
2018-05-26T05:21:41.974Z,16.73
2018-05-26T05:22:41.994Z,16.77
2018-05-26T05:23:42.142Z,16.75
2018-05-26T05:24:42.087Z,16.80
2018-05-26T05:25:42.128Z,16.83
2018-05-26T05:26:42.218Z,16.86
2018-05-26T05:27:42.212Z,16.85
2018-05-26T05:28:42.261Z,16.92
2018-05-26T05:29:42.296Z,16.92
2018-05-26T05:30:42.355Z,16.90
2018-05-26T05:31:42.400Z,16.85
2018-05-26T05:32:42.427Z,16.98
2018-05-26T05:33:42.680Z,16.95
2018-05-26T05:34:42.725Z,16.89
2018-05-26T05:35:42.559Z,16.89
2018-05-26T05:36:42.612Z,16.85
2018-05-26T05:37:42.664Z,16.89
2018-05-26T05:38:42.692Z,16.83
2018-05-26T05:39:42.737Z,16.92
2018-05-26T05:40:42.982Z,16.95
2018-05-26T05:41:42.823Z,16.86
2018-05-26T05:42:42.856Z,16.86
2018-05-26T05:43:42.897Z,16.90
2018-05-26T05:44:42.953Z,16.83
2018-05-26T05:45:43.201Z,16.96
2018-05-26T05:46:43.026Z,16.80
2018-05-26T05:47:43.084Z,16.88
2018-05-26T05:48:43.137Z,16.81
2018-05-26T05:49:43.169Z,16.83
2018-05-26T05:50:43.200Z,16.78
2018-05-26T05:51:43.462Z,16.83
2018-05-26T05:52:43.300Z,16.75
2018-05-26T05:53:43.326Z,16.83
2018-05-26T05:54:43.368Z,16.89
2018-05-26T05:55:43.425Z,16.80
2018-05-26T05:56:43.458Z,16.80
2018-05-26T05:57:43.509Z,16.85
2018-05-26T05:58:43.559Z,16.77
2018-05-26T05:59:43.588Z,16.77
2018-05-26T06:00:43.623Z,16.78
2018-05-26T06:01:43.878Z,16.75
2018-05-26T06:02:43.932Z,16.80
2018-05-26T06:03:43.762Z,16.77
2018-05-26T06:04:43.812Z,16.77
2018-05-26T06:05:43.856Z,16.80
2018-05-26T06:06:43.890Z,16.78
2018-05-26T06:07:43.938Z,16.68
2018-05-26T06:08:44.080Z,16.77
2018-05-26T06:09:44.005Z,16.78
2018-05-26T06:10:44.069Z,16.77
2018-05-26T06:11:44.121Z,16.77
2018-05-26T06:12:44.133Z,16.77
2018-05-26T06:13:44.446Z,16.77
2018-05-26T06:14:44.231Z,16.78
2018-05-26T06:15:44.281Z,16.75
2018-05-26T06:16:44.320Z,16.71
2018-05-26T06:17:44.344Z,16.71
2018-05-26T06:18:44.403Z,16.71
2018-05-26T06:19:44.544Z,16.77
2018-05-26T06:20:44.473Z,16.73
2018-05-26T06:21:44.524Z,16.71
2018-05-26T06:22:44.573Z,16.74
2018-05-26T06:23:44.618Z,16.70
2018-05-26T06:24:44.643Z,16.74
2018-05-26T06:25:44.717Z,16.73
2018-05-26T06:26:44.739Z,16.74
2018-05-26T06:27:44.782Z,16.65
2018-05-26T06:28:44.825Z,16.70
2018-05-26T06:29:44.970Z,16.71
2018-05-26T06:30:44.916Z,16.71
2018-05-26T06:31:45.031Z,16.70
2018-05-26T06:32:44.989Z,16.71
2018-05-26T06:33:45.027Z,16.67
2018-05-26T06:34:45.067Z,16.67
2018-05-26T06:35:45.341Z,16.70
2018-05-26T06:36:45.164Z,16.65
2018-05-26T06:37:45.253Z,16.74
2018-05-26T06:38:45.240Z,16.67
2018-05-26T06:39:45.303Z,16.67
2018-05-26T06:40:45.427Z,16.63
2018-05-26T06:41:45.386Z,16.68
2018-05-26T06:42:45.428Z,16.53
2018-05-26T06:43:45.451Z,16.56
2018-05-26T06:44:45.511Z,16.58
2018-05-26T06:45:45.548Z,16.50
2018-05-26T06:46:45.597Z,16.59
2018-05-26T06:47:45.640Z,16.48
2018-05-26T06:48:45.665Z,16.60
2018-05-26T06:49:45.731Z,16.56
2018-05-26T06:50:45.951Z,16.53
2018-05-26T06:51:45.894Z,16.55
2018-05-26T06:52:45.859Z,16.55
2018-05-26T06:53:45.889Z,16.56
2018-05-26T06:54:45.936Z,16.55
2018-05-26T06:55:45.964Z,16.56
2018-05-26T06:56:46.007Z,16.55
2018-05-26T06:57:46.143Z,16.56
2018-05-26T06:58:46.102Z,16.58
2018-05-26T06:59:46.133Z,16.58
2018-05-26T07:00:46.192Z,16.60
2018-05-26T07:01:46.244Z,16.62
2018-05-26T07:02:46.368Z,16.56
2018-05-26T07:03:46.327Z,16.56
2018-05-26T07:04:46.342Z,16.55
2018-05-26T07:05:46.395Z,16.60
2018-05-26T07:06:46.430Z,16.53
2018-05-26T07:07:46.477Z,16.59
2018-05-26T07:08:46.723Z,16.59
2018-05-26T07:09:46.548Z,16.60
2018-05-26T07:10:46.618Z,16.53
2018-05-26T07:11:46.651Z,16.53
2018-05-26T07:12:46.676Z,16.56
2018-05-26T07:13:46.735Z,16.49
2018-05-26T07:14:46.777Z,16.55
2018-05-26T07:15:46.824Z,16.58
2018-05-26T07:16:46.850Z,16.56
2018-05-26T07:17:46.906Z,16.55
2018-05-26T07:18:47.050Z,16.53
2018-05-26T07:19:47.421Z,16.49
2018-05-26T07:20:47.031Z,16.53
2018-05-26T07:21:47.071Z,16.53
2018-05-26T07:22:47.116Z,16.53
2018-05-26T07:23:47.142Z,16.56
2018-05-26T07:24:47.224Z,16.55
2018-05-26T07:25:47.224Z,16.56
2018-05-26T07:26:47.378Z,16.63
2018-05-26T07:27:47.336Z,16.63
2018-05-26T07:28:47.363Z,16.67
2018-05-26T07:29:47.419Z,16.68
2018-05-26T07:30:47.447Z,16.71
2018-05-26T07:31:47.698Z,16.71
2018-05-26T07:32:47.525Z,16.73
2018-05-26T07:33:47.587Z,16.67
2018-05-26T07:34:47.618Z,16.68
2018-05-26T07:35:47.682Z,16.65
2018-05-26T07:36:47.714Z,16.60
2018-05-26T07:37:47.836Z,16.65
2018-05-26T07:38:47.791Z,16.59
2018-05-26T07:39:47.819Z,16.60
2018-05-26T07:40:47.867Z,16.55
2018-05-26T07:41:47.900Z,16.48
2018-05-26T07:42:48.166Z,16.56
2018-05-26T07:43:48.014Z,16.55
2018-05-26T07:44:48.033Z,16.52
2018-05-26T07:45:48.076Z,16.55
2018-05-26T07:46:48.137Z,16.56
2018-05-26T07:47:48.163Z,16.56
2018-05-26T07:48:48.310Z,16.55
2018-05-26T07:49:48.246Z,16.55
2018-05-26T07:50:48.284Z,16.49
2018-05-26T07:51:48.338Z,16.48
2018-05-26T07:52:48.397Z,16.45
2018-05-26T07:53:48.429Z,16.52
2018-05-26T07:54:48.466Z,16.50
2018-05-26T07:55:48.504Z,16.48
2018-05-26T07:56:48.558Z,16.49
2018-05-26T07:57:48.630Z,16.45
2018-05-26T07:58:48.822Z,16.58
2018-05-26T07:59:48.776Z,16.45
2018-05-26T08:00:48.723Z,16.45
2018-05-26T08:01:48.752Z,16.55
2018-05-26T08:02:48.802Z,16.49
2018-05-26T08:03:48.849Z,16.49
2018-05-26T08:04:48.889Z,16.45
2018-05-26T08:05:48.918Z,16.41
2018-05-26T08:06:48.969Z,16.45
2018-05-26T08:07:49.006Z,16.42
2018-05-26T08:08:49.049Z,16.40
2018-05-26T08:09:49.301Z,16.33
2018-05-26T08:10:49.157Z,16.38
2018-05-26T08:11:49.188Z,16.27
2018-05-26T08:12:49.234Z,16.37
2018-05-26T08:13:49.271Z,16.35
2018-05-26T08:14:49.395Z,16.33
2018-05-26T08:15:49.359Z,16.38
2018-05-26T08:16:49.386Z,16.37
2018-05-26T08:17:49.445Z,16.27
2018-05-26T08:18:49.480Z,16.35
2018-05-26T08:19:49.526Z,16.27
2018-05-26T08:20:49.755Z,16.35
2018-05-26T08:21:49.601Z,16.25
2018-05-26T08:22:49.664Z,16.34
2018-05-26T08:23:49.680Z,16.27
2018-05-26T08:24:49.745Z,16.27
2018-05-26T08:25:49.769Z,16.26
2018-05-26T08:26:49.920Z,16.31
2018-05-26T08:27:49.862Z,16.25
2018-05-26T08:28:49.911Z,16.34
2018-05-26T08:29:49.957Z,16.34
2018-05-26T08:30:49.997Z,16.37
2018-05-26T08:31:50.025Z,16.30
2018-05-26T08:32:50.328Z,16.22
2018-05-26T08:33:50.130Z,16.26
2018-05-26T08:34:50.153Z,16.27
2018-05-26T08:35:50.205Z,16.31
2018-05-26T08:36:50.248Z,16.30
2018-05-26T08:37:50.272Z,16.26
2018-05-26T08:38:50.438Z,16.23
2018-05-26T08:39:50.372Z,16.23
2018-05-26T08:40:50.433Z,16.18
2018-05-26T08:41:50.501Z,16.23
2018-05-26T08:42:50.496Z,16.15
2018-05-26T08:43:50.534Z,16.16
2018-05-26T08:44:50.785Z,16.18
2018-05-26T08:45:50.638Z,16.22
2018-05-26T08:46:50.681Z,16.12
2018-05-26T08:47:50.714Z,16.14
2018-05-26T08:48:50.755Z,16.27
2018-05-26T08:49:50.888Z,16.27
2018-05-26T08:50:50.846Z,16.27
2018-05-26T08:51:50.886Z,16.35
2018-05-26T08:52:50.917Z,16.30
2018-05-26T08:53:50.971Z,16.38
2018-05-26T08:54:51.005Z,16.44
2018-05-26T08:55:51.262Z,16.44
2018-05-26T08:56:51.100Z,16.37
2018-05-26T08:57:51.136Z,16.48
2018-05-26T08:58:51.176Z,16.50
2018-05-26T08:59:51.221Z,16.45
2018-05-26T09:00:51.277Z,16.52
2018-05-26T09:01:51.306Z,16.52
2018-05-26T09:02:51.358Z,16.52
2018-05-26T09:03:51.390Z,16.52
2018-05-26T09:04:51.449Z,16.56
2018-05-26T09:05:51.575Z,16.52
2018-05-26T09:06:51.516Z,16.56
2018-05-26T09:07:51.561Z,16.63
2018-05-26T09:08:51.613Z,16.63
2018-05-26T09:09:51.666Z,16.62
2018-05-26T09:10:51.893Z,16.67
2018-05-26T09:11:51.729Z,16.73
2018-05-26T09:12:51.792Z,16.70
2018-05-26T09:13:51.827Z,16.63
2018-05-26T09:14:51.875Z,16.65
2018-05-26T09:15:51.919Z,16.65
2018-05-26T09:16:52.057Z,16.63
2018-05-26T09:17:52.005Z,16.68
2018-05-26T09:18:52.057Z,16.65
2018-05-26T09:19:52.074Z,16.71
2018-05-26T09:20:52.119Z,16.71
2018-05-26T09:21:52.425Z,16.73
2018-05-26T09:22:52.209Z,16.73
2018-05-26T09:23:52.246Z,16.73
2018-05-26T09:24:52.307Z,16.77
2018-05-26T09:25:52.354Z,16.71
2018-05-26T09:26:52.383Z,16.78
2018-05-26T09:27:52.520Z,16.77
2018-05-26T09:28:52.472Z,16.75
2018-05-26T09:29:52.500Z,16.75
2018-05-26T09:30:52.565Z,16.73
2018-05-26T09:31:52.607Z,16.71
2018-05-26T09:32:52.629Z,16.65
2018-05-26T09:33:52.885Z,16.74
2018-05-26T09:34:52.732Z,16.75
2018-05-26T09:35:52.780Z,16.75
2018-05-26T09:36:52.811Z,16.78
2018-05-26T09:37:52.872Z,16.67
2018-05-26T09:38:53.089Z,16.80
2018-05-26T09:39:52.925Z,16.75
2018-05-26T09:40:52.999Z,16.75
2018-05-26T09:41:53.031Z,16.73
2018-05-26T09:42:53.059Z,16.71
2018-05-26T09:43:53.097Z,16.73
2018-05-26T09:44:53.352Z,16.75
2018-05-26T09:45:53.201Z,16.77
2018-05-26T09:46:53.229Z,16.81
2018-05-26T09:47:53.295Z,16.78
2018-05-26T09:48:53.314Z,16.78
2018-05-26T09:49:53.472Z,16.78
2018-05-26T09:50:53.419Z,16.78
2018-05-26T09:51:53.461Z,16.81
2018-05-26T09:52:53.488Z,16.92
2018-05-26T09:53:53.535Z,16.93
2018-05-26T09:54:53.581Z,16.88
2018-05-26T09:55:53.628Z,16.85
2018-05-26T09:56:53.674Z,16.93
2018-05-26T09:57:53.710Z,16.90
2018-05-26T09:58:53.733Z,16.90
2018-05-26T09:59:53.787Z,16.90
2018-05-26T10:00:53.941Z,16.99
2018-05-26T10:01:53.870Z,17.06
2018-05-26T10:02:53.909Z,17.03
2018-05-26T10:03:53.969Z,17.13
2018-05-26T10:04:54.006Z,17.15
2018-05-26T10:05:54.055Z,17.13
2018-05-26T10:06:54.090Z,17.15
2018-05-26T10:07:54.149Z,17.17
2018-05-26T10:08:54.175Z,17.15
2018-05-26T10:09:54.227Z,17.23
2018-05-26T10:10:54.366Z,17.23
2018-05-26T10:11:54.306Z,17.22
2018-05-26T10:12:54.351Z,17.25
2018-05-26T10:13:54.379Z,17.33
2018-05-26T10:14:54.416Z,17.32
2018-05-26T10:15:54.463Z,17.32
2018-05-26T10:16:54.507Z,17.30
2018-05-26T10:17:54.668Z,17.23
2018-05-26T10:18:54.591Z,17.26
2018-05-26T10:19:54.698Z,17.29
2018-05-26T10:20:54.676Z,17.26
2018-05-26T10:21:54.733Z,17.28
2018-05-26T10:22:55.277Z,17.35
2018-05-26T10:23:54.821Z,17.38
2018-05-26T10:24:54.869Z,17.32
2018-05-26T10:25:54.899Z,17.43
2018-05-26T10:26:54.952Z,17.41
2018-05-26T10:27:54.994Z,17.35
2018-05-26T10:28:55.142Z,17.30
2018-05-26T10:29:55.130Z,17.32
2018-05-26T10:30:55.128Z,17.35
2018-05-26T10:31:55.164Z,17.26
2018-05-26T10:32:55.206Z,17.30
2018-05-26T10:33:55.231Z,17.30
2018-05-26T10:34:55.675Z,17.32
2018-05-26T10:35:55.319Z,17.30
2018-05-26T10:36:55.379Z,17.35
2018-05-26T10:37:55.407Z,17.32
2018-05-26T10:38:55.465Z,17.25
2018-05-26T10:39:55.508Z,17.32
2018-05-26T10:40:55.637Z,17.41
2018-05-26T10:41:55.590Z,17.41
2018-05-26T10:42:55.627Z,17.38
2018-05-26T10:43:55.662Z,17.43
2018-05-26T10:44:55.719Z,17.46
2018-05-26T10:45:55.766Z,17.38
2018-05-26T10:46:56.013Z,17.47
2018-05-26T10:47:55.841Z,17.43
2018-05-26T10:48:55.883Z,17.53
2018-05-26T10:49:55.953Z,17.57
2018-05-26T10:50:55.971Z,17.44
2018-05-26T10:51:56.027Z,17.48
2018-05-26T10:52:56.417Z,17.44
2018-05-26T10:53:56.104Z,17.48
2018-05-26T10:54:56.146Z,17.48
2018-05-26T10:55:56.208Z,17.59
2018-05-26T10:56:56.231Z,17.51
2018-05-26T10:57:56.278Z,17.50
2018-05-26T10:58:56.511Z,17.57
2018-05-26T10:59:56.374Z,17.54
2018-05-26T11:00:56.419Z,17.55
2018-05-26T11:01:56.438Z,17.64
2018-05-26T11:02:56.502Z,17.59
2018-05-26T11:03:56.629Z,17.63
2018-05-26T11:04:56.576Z,17.55
2018-05-26T11:05:56.673Z,17.50
2018-05-26T11:06:56.671Z,17.44
2018-05-26T11:07:56.721Z,17.48
2018-05-26T11:08:56.759Z,17.43
2018-05-26T11:09:56.996Z,17.46
2018-05-26T11:10:56.845Z,17.38
2018-05-26T11:11:56.872Z,17.46
2018-05-26T11:12:56.914Z,17.44
2018-05-26T11:13:56.953Z,17.48
2018-05-26T11:14:56.996Z,17.47
2018-05-26T11:15:57.140Z,17.55
2018-05-26T11:16:57.088Z,17.54
2018-05-26T11:17:57.382Z,17.59
2018-05-26T11:18:57.206Z,17.64
2018-05-26T11:19:57.217Z,17.71
2018-05-26T11:20:57.259Z,17.63
2018-05-26T11:21:57.390Z,17.62
2018-05-26T11:22:57.376Z,17.62
2018-05-26T11:23:57.400Z,17.57
2018-05-26T11:24:57.428Z,17.54
2018-05-26T11:25:57.470Z,17.62
2018-05-26T11:26:57.527Z,17.63
2018-05-26T11:27:57.572Z,17.66
2018-05-26T11:28:57.657Z,17.71
2018-05-26T11:29:57.646Z,17.78
2018-05-26T11:30:57.741Z,17.71
2018-05-26T11:31:57.828Z,17.67
2018-05-26T11:32:57.780Z,17.81
2018-05-26T11:33:57.822Z,17.73
2018-05-26T11:34:57.869Z,17.78
2018-05-26T11:35:57.907Z,17.89
2018-05-26T11:36:57.971Z,18.02
2018-05-26T11:37:58.000Z,18.02
2018-05-26T11:38:58.032Z,18.13
2018-05-26T11:39:58.090Z,18.03
2018-05-26T11:40:58.133Z,18.15
2018-05-26T11:41:58.263Z,18.22
2018-05-26T11:42:58.213Z,18.19
2018-05-26T11:43:58.261Z,18.29
2018-05-26T11:44:58.304Z,18.22
2018-05-26T11:45:58.339Z,18.17
2018-05-26T11:46:58.388Z,18.36
2018-05-26T11:47:58.439Z,18.31
2018-05-26T11:48:58.472Z,18.28
2018-05-26T11:49:58.521Z,18.31
2018-05-26T11:50:58.559Z,18.31
2018-05-26T11:51:58.607Z,18.42
2018-05-26T11:52:58.852Z,18.39
2018-05-26T11:53:58.701Z,18.46
2018-05-26T11:54:58.747Z,18.43
2018-05-26T11:55:58.781Z,18.52
2018-05-26T11:56:58.848Z,18.57
2018-05-26T11:57:58.986Z,18.68
2018-05-26T11:58:58.932Z,18.64
2018-05-26T11:59:58.968Z,18.67
2018-05-26T12:00:59.030Z,18.76
2018-05-26T12:01:59.067Z,18.67
2018-05-26T12:02:59.100Z,18.59
2018-05-26T12:03:59.153Z,18.55
2018-05-26T12:04:59.180Z,18.70
2018-05-26T12:05:59.222Z,18.68
2018-05-26T12:06:59.292Z,18.73
2018-05-26T12:07:59.337Z,18.84
2018-05-26T12:08:59.458Z,18.87
2018-05-26T12:09:59.408Z,18.82
2018-05-26T12:10:59.448Z,18.92
2018-05-26T12:11:59.493Z,19.05
2018-05-26T12:12:59.541Z,18.91
2018-05-26T12:13:59.603Z,18.87
2018-05-26T12:14:59.654Z,18.82
2018-05-26T12:15:59.689Z,18.80
2018-05-26T12:16:59.721Z,18.91
2018-05-26T12:17:59.776Z,18.82
2018-05-26T12:19:00.014Z,18.79
2018-05-26T12:19:59.871Z,18.91
2018-05-26T12:20:59.917Z,18.99
2018-05-26T12:21:59.948Z,19.13
2018-05-26T12:22:59.990Z,19.06
2018-05-26T12:24:00.045Z,19.13
2018-05-26T12:25:00.093Z,19.15
2018-05-26T12:26:00.129Z,19.05
2018-05-26T12:27:00.196Z,19.08
2018-05-26T12:28:00.235Z,19.08
2018-05-26T12:29:00.464Z,19.21
2018-05-26T12:30:00.314Z,19.14
2018-05-26T12:31:00.356Z,19.17
2018-05-26T12:32:00.408Z,19.28
2018-05-26T12:33:00.452Z,19.32
2018-05-26T12:34:00.653Z,19.31
2018-05-26T12:35:00.533Z,19.32
2018-05-26T12:36:00.604Z,19.25
2018-05-26T12:37:00.623Z,19.28
2018-05-26T12:38:00.690Z,19.38
2018-05-26T12:39:00.721Z,19.40
2018-05-26T12:40:00.796Z,19.51
2018-05-26T12:41:00.813Z,19.68
2018-05-26T12:42:00.864Z,19.84
2018-05-26T12:43:00.896Z,19.86
2018-05-26T12:44:01.056Z,19.84
2018-05-26T12:45:01.025Z,19.63
2018-05-26T12:46:01.038Z,19.66
2018-05-26T12:47:01.091Z,19.54
2018-05-26T12:48:01.139Z,19.46
2018-05-26T12:49:01.181Z,19.43
2018-05-26T12:50:01.221Z,19.42
2018-05-26T12:51:01.283Z,19.57
2018-05-26T12:52:01.324Z,19.57
2018-05-26T12:53:01.362Z,19.47